Time,TemperatureF,DewpointF,PressureIn,WindDirection,WindDirectionDegrees,WindSpeedMPH,WindSpeedGustMPH,Humidity,HourlyPrecipIn,Conditions,Clouds,dailyrainin,SoftwareType,DateUTC
2013-01-21 00:01:00,33.6,29.0,29.90,WNW,292,0.0,-999.0,83,-99.99,,,0.00,Acu-Link.com,2013-01-21 05:01:00,
2013-01-21 00:32:00,33.1,28.8,29.90,West,270,0.0,-999.0,84,-99.99,,,0.00,Acu-Link.com,2013-01-21 05:32:00,
2013-01-21 01:02:00,32.2,28.5,29.89,SW,225,0.0,-999.0,86,-99.99,,,0.00,Acu-Link.com,2013-01-21 06:02:00,
2013-01-21 01:17:00,31.6,28.2,29.89,WNW,292,1.1,-999.0,87,-99.99,,,0.00,Acu-Link.com,2013-01-21 06:17:00,
2013-01-21 01:32:00,31.1,28.0,29.89,NNW,337,0.0,-999.0,88,-99.99,,,0.00,Acu-Link.com,2013-01-21 06:32:00,
2013-01-21 01:48:00,30.6,27.7,29.89,West,270,2.2,-999.0,89,-99.99,,,0.00,Acu-Link.com,2013-01-21 06:48:00,
2013-01-21 02:03:00,30.7,27.6,29.89,West,270,0.0,-999.0,88,-99.99,,,0.00,Acu-Link.com,2013-01-21 07:03:00,
2013-01-21 02:18:00,30.4,27.8,29.90,WSW,247,1.6,-999.0,90,-99.99,,,0.00,Acu-Link.com,2013-01-21 07:18:00,
2013-01-21 02:33:00,30.0,27.7,29.90,SW,225,0.0,-999.0,91,-99.99,,,0.00,Acu-Link.com,2013-01-21 07:33:00,
2013-01-21 02:48:00,29.8,27.8,29.89,WSW,247,0.0,-999.0,92,-99.99,,,0.00,Acu-Link.com,2013-01-21 07:48:00,
2013-01-21 03:04:00,29.8,27.5,29.89,WNW,292,0.0,-999.0,91,-99.99,,,0.00,Acu-Link.com,2013-01-21 08:04:00,
2013-01-21 03:19:00,29.5,27.7,29.89,SW,225,0.0,-999.0,93,-99.99,,,0.00,Acu-Link.com,2013-01-21 08:19:00,
2013-01-21 03:34:00,29.3,27.5,29.89,WSW,247,1.6,-999.0,93,-99.99,,,0.00,Acu-Link.com,2013-01-21 08:34:00,
2013-01-21 03:49:00,29.3,27.5,29.88,WNW,292,0.0,-999.0,93,-99.99,,,0.00,Acu-Link.com,2013-01-21 08:49:00,
2013-01-21 04:17:00,29.8,28.1,29.88,SSW,202,2.7,-999.0,93,-99.99,,,0.00,Acu-Link.com,2013-01-21 09:17:00,
2013-01-21 04:32:00,28.8,27.0,29.88,WSW,247,1.6,-999.0,93,-99.99,,,0.00,Acu-Link.com,2013-01-21 09:32:00,
2013-01-21 04:47:00,28.9,27.4,29.87,NW,315,0.0,-999.0,94,-99.99,,,0.00,Acu-Link.com,2013-01-21 09:47:00,
2013-01-21 05:02:00,28.0,26.3,29.87,WSW,247,0.0,-999.0,93,-99.99,,,0.00,Acu-Link.com,2013-01-21 10:02:00,
2013-01-21 05:17:00,27.7,26.2,29.87,SSE,157,0.0,-999.0,94,-99.99,,,0.00,Acu-Link.com,2013-01-21 10:17:00,
2013-01-21 05:32:00,27.5,26.3,29.87,SSW,202,0.0,-999.0,95,-99.99,,,0.00,Acu-Link.com,2013-01-21 10:32:00,
2013-01-21 05:47:00,27.5,26.3,29.87,SW,225,0.0,-999.0,95,-99.99,,,0.00,Acu-Link.com,2013-01-21 10:47:00,
2013-01-21 06:02:00,27.3,26.1,29.87,West,270,1.1,-999.0,95,-99.99,,,0.00,Acu-Link.com,2013-01-21 11:02:00,
2013-01-21 06:18:00,27.5,26.5,29.87,SW,225,0.0,-999.0,96,-99.99,,,0.00,Acu-Link.com,2013-01-21 11:18:00,
2013-01-21 06:33:00,26.8,25.8,29.87,NNW,337,0.0,-999.0,96,-99.99,,,0.00,Acu-Link.com,2013-01-21 11:33:00,
2013-01-21 06:48:00,27.0,26.0,29.87,SW,225,0.0,-999.0,96,-99.99,,,0.00,Acu-Link.com,2013-01-21 11:48:00,
2013-01-21 07:03:00,26.6,25.6,29.87,South,180,2.7,-999.0,96,-99.99,,,0.00,Acu-Link.com,2013-01-21 12:03:00,
2013-01-21 07:19:00,26.6,25.9,29.87,ESE,112,0.0,-999.0,97,-99.99,,,0.00,Acu-Link.com,2013-01-21 12:19:00,
2013-01-21 07:34:00,26.4,25.4,29.87,West,270,0.0,-999.0,96,-99.99,,,0.00,Acu-Link.com,2013-01-21 12:34:00,
2013-01-21 07:49:00,26.6,25.9,29.87,West,270,0.0,-999.0,97,-99.99,,,0.00,Acu-Link.com,2013-01-21 12:49:00,
2013-01-21 08:04:00,26.6,25.9,29.88,West,270,1.1,-999.0,97,-99.99,,,0.00,Acu-Link.com,2013-01-21 13:04:00,
2013-01-21 08:19:00,26.8,26.0,29.88,NW,315,0.0,-999.0,97,-99.99,,,0.00,Acu-Link.com,2013-01-21 13:19:00,
2013-01-21 08:35:00,27.1,26.4,29.88,SSW,202,0.0,-999.0,97,-99.99,,,0.00,Acu-Link.com,2013-01-21 13:35:00,
2013-01-21 08:50:00,29.7,28.4,29.89,NNE,22,0.0,-999.0,95,-99.99,,,0.00,Acu-Link.com,2013-01-21 13:50:00,
2013-01-21 09:05:00,29.7,28.4,29.89,East,90,0.0,-999.0,95,-99.99,,,0.00,Acu-Link.com,2013-01-21 14:05:00,
2013-01-21 09:20:00,32.9,30.3,29.89,West,270,2.7,-999.0,90,-99.99,,,0.00,Acu-Link.com,2013-01-21 14:20:00,
2013-01-21 09:35:00,36.3,31.4,29.90,SSE,157,3.1,-999.0,82,-99.99,,,0.00,Acu-Link.com,2013-01-21 14:35:00,
2013-01-21 09:51:00,42.8,29.5,29.89,East,90,4.7,-999.0,59,-99.99,,,0.00,Acu-Link.com,2013-01-21 14:51:00,
2013-01-21 10:06:00,44.2,30.0,29.89,ESE,112,3.8,-999.0,57,-99.99,,,0.00,Acu-Link.com,2013-01-21 15:06:00,
2013-01-21 10:21:00,43.9,30.1,29.90,NE,45,3.1,-999.0,58,-99.99,,,0.00,Acu-Link.com,2013-01-21 15:21:00,
2013-01-21 10:36:00,44.4,28.8,29.90,SE,135,3.1,-999.0,54,-99.99,,,0.00,Acu-Link.com,2013-01-21 15:36:00,
2013-01-21 10:51:00,45.1,29.0,29.90,ESE,112,3.8,-999.0,53,-99.99,,,0.00,Acu-Link.com,2013-01-21 15:51:00,
2013-01-21 11:07:00,44.8,27.8,29.90,NW,315,2.7,-999.0,51,-99.99,,,0.00,Acu-Link.com,2013-01-21 16:07:00,
2013-01-21 11:22:00,45.5,28.4,29.90,East,90,2.7,-999.0,51,-99.99,,,0.00,Acu-Link.com,2013-01-21 16:22:00,
2013-01-21 11:37:00,46.0,28.5,29.89,East,90,7.4,-999.0,50,-99.99,,,0.00,Acu-Link.com,2013-01-21 16:37:00,
2013-01-21 11:52:00,46.6,27.4,29.88,East,90,2.7,-999.0,47,-99.99,,,0.00,Acu-Link.com,2013-01-21 16:52:00,
2013-01-21 12:08:00,46.8,25.5,29.88,SW,225,1.6,-999.0,43,-99.99,,,0.00,Acu-Link.com,2013-01-21 17:08:00,
2013-01-21 12:23:00,48.0,24.9,29.87,NW,315,3.1,-999.0,40,-99.99,,,0.00,Acu-Link.com,2013-01-21 17:23:00,
2013-01-21 12:38:00,47.3,24.8,29.86,ENE,67,3.1,-999.0,41,-99.99,,,0.00,Acu-Link.com,2013-01-21 17:38:00,
2013-01-21 12:53:00,47.7,25.7,29.85,ENE,67,5.1,-999.0,42,-99.99,,,0.00,Acu-Link.com,2013-01-21 17:53:00,
2013-01-21 13:08:00,47.7,25.1,29.85,WSW,247,2.2,-999.0,41,-99.99,,,0.00,Acu-Link.com,2013-01-21 18:08:00,
2013-01-21 13:24:00,46.9,23.3,29.84,NNW,337,2.2,-999.0,39,-99.99,,,0.00,Acu-Link.com,2013-01-21 18:24:00,
2013-01-21 13:39:00,46.2,23.8,29.84,West,270,1.1,-999.0,41,-99.99,,,0.00,Acu-Link.com,2013-01-21 18:39:00,
2013-01-21 13:54:00,45.7,24.5,29.84,ESE,112,4.3,-999.0,43,-99.99,,,0.00,Acu-Link.com,2013-01-21 18:54:00,
2013-01-21 14:09:00,46.0,25.4,29.83,North,0,7.8,-999.0,44,-99.99,,,0.00,Acu-Link.com,2013-01-21 19:09:00,
2013-01-21 14:24:00,46.4,26.2,29.84,SSW,202,4.7,-999.0,45,-99.99,,,0.00,Acu-Link.com,2013-01-21 19:24:00,
2013-01-21 14:40:00,45.3,24.7,29.84,NNW,337,4.7,-999.0,44,-99.99,,,0.00,Acu-Link.com,2013-01-21 19:40:00,
2013-01-21 14:55:00,45.5,24.9,29.84,North,0,4.7,-999.0,44,-99.99,,,0.00,Acu-Link.com,2013-01-21 19:55:00,
2013-01-21 15:10:00,44.6,25.1,29.85,ENE,67,8.3,-999.0,46,-99.99,,,0.00,Acu-Link.com,2013-01-21 20:10:00,
2013-01-21 15:25:00,44.2,24.8,29.83,NW,315,8.3,-999.0,46,-99.99,,,0.00,Acu-Link.com,2013-01-21 20:25:00,
2013-01-21 15:40:00,43.9,24.5,29.84,ESE,112,8.3,-999.0,46,-99.99,,,0.00,Acu-Link.com,2013-01-21 20:40:00,
2013-01-21 15:56:00,43.3,23.4,29.85,NE,45,1.6,-999.0,45,-99.99,,,0.00,Acu-Link.com,2013-01-21 20:56:00,
2013-01-21 16:11:00,42.6,22.3,29.85,ESE,112,4.3,-999.0,44,-99.99,,,0.00,Acu-Link.com,2013-01-21 21:11:00,
2013-01-21 16:26:00,41.9,20.5,29.85,South,180,4.3,-999.0,42,-99.99,,,0.00,Acu-Link.com,2013-01-21 21:26:00,
2013-01-21 16:41:00,41.5,17.8,29.85,East,90,3.8,-999.0,38,-99.99,,,0.00,Acu-Link.com,2013-01-21 21:41:00,
2013-01-21 16:57:00,40.8,16.0,29.86,NNE,22,3.8,-999.0,36,-99.99,,,0.00,Acu-Link.com,2013-01-21 21:57:00,
2013-01-21 17:12:00,40.5,16.3,29.86,East,90,2.7,-999.0,37,-99.99,,,0.00,Acu-Link.com,2013-01-21 22:12:00,
2013-01-21 17:27:00,39.6,16.1,29.87,East,90,2.7,-999.0,38,-99.99,,,0.00,Acu-Link.com,2013-01-21 22:27:00,
2013-01-21 17:42:00,38.8,16.0,29.87,NE,45,0.0,-999.0,39,-99.99,,,0.00,Acu-Link.com,2013-01-21 22:42:00,
2013-01-21 17:57:00,38.5,16.3,29.87,WNW,292,5.1,-999.0,40,-99.99,,,0.00,Acu-Link.com,2013-01-21 22:57:00,
2013-01-21 18:13:00,38.1,16.0,29.87,West,270,1.6,-999.0,40,-99.99,,,0.00,Acu-Link.com,2013-01-21 23:13:00,
2013-01-21 18:28:00,36.9,17.0,29.87,SSE,157,0.0,-999.0,44,-99.99,,,0.00,Acu-Link.com,2013-01-21 23:28:00,
2013-01-21 18:43:00,36.3,16.0,29.87,West,270,1.6,-999.0,43,-99.99,,,0.00,Acu-Link.com,2013-01-21 23:43:00,
2013-01-21 18:58:00,35.8,16.5,29.87,SSW,202,3.8,-999.0,45,-99.99,,,0.00,Acu-Link.com,2013-01-21 23:58:00,
2013-01-21 19:13:00,34.9,16.2,29.89,WSW,247,2.2,-999.0,46,-99.99,,,0.00,Acu-Link.com,2013-01-22 00:13:00,
2013-01-21 19:29:00,34.9,16.7,29.89,South,180,2.2,-999.0,47,-99.99,,,0.00,Acu-Link.com,2013-01-22 00:29:00,
2013-01-21 19:44:00,34.7,17.0,29.88,West,270,2.2,-999.0,48,-99.99,,,0.00,Acu-Link.com,2013-01-22 00:44:00,
2013-01-21 19:59:00,33.6,17.0,29.87,WSW,247,3.8,-999.0,50,-99.99,,,0.00,Acu-Link.com,2013-01-22 00:59:00,
2013-01-21 20:14:00,33.6,16.0,29.87,SE,135,1.6,-999.0,48,-99.99,,,0.00,Acu-Link.com,2013-01-22 01:14:00,
2013-01-21 20:29:00,32.9,16.3,29.87,East,90,1.6,-999.0,50,-99.99,,,0.00,Acu-Link.com,2013-01-22 01:29:00,
2013-01-21 20:45:00,33.1,16.0,29.87,West,270,1.6,-999.0,49,-99.99,,,0.00,Acu-Link.com,2013-01-22 01:45:00,
2013-01-21 21:00:00,32.9,15.4,29.88,ESE,112,2.7,-999.0,48,-99.99,,,0.00,Acu-Link.com,2013-01-22 02:00:00,
2013-01-21 21:15:00,32.5,16.0,29.89,West,270,3.8,-999.0,50,-99.99,,,0.00,Acu-Link.com,2013-01-22 02:15:00,
2013-01-21 21:30:00,32.2,15.2,29.89,WNW,292,4.3,-999.0,49,-99.99,,,0.00,Acu-Link.com,2013-01-22 02:30:00,
2013-01-21 21:46:00,31.8,15.3,29.89,East,90,2.2,-999.0,50,-99.99,,,0.00,Acu-Link.com,2013-01-22 02:46:00,
2013-01-21 22:01:00,31.5,14.5,29.89,South,180,5.8,-999.0,49,-99.99,,,0.00,Acu-Link.com,2013-01-22 03:01:00,
2013-01-21 22:16:00,30.7,14.8,29.89,SW,225,1.6,-999.0,51,-99.99,,,0.00,Acu-Link.com,2013-01-22 03:16:00,
2013-01-21 22:31:00,30.4,14.0,29.89,ENE,67,2.7,-999.0,50,-99.99,,,0.00,Acu-Link.com,2013-01-22 03:31:00,
2013-01-21 22:46:00,30.2,13.8,29.89,NW,315,1.1,-999.0,50,-99.99,,,0.00,Acu-Link.com,2013-01-22 03:46:00,
2013-01-21 23:02:00,29.7,13.3,29.89,NE,45,2.7,-999.0,50,-99.99,,,0.00,Acu-Link.com,2013-01-22 04:02:00,
2013-01-21 23:17:00,28.9,14.4,29.90,ESE,112,2.2,-999.0,54,-99.99,,,0.00,Acu-Link.com,2013-01-22 04:17:00,
2013-01-21 23:32:00,28.9,13.5,29.89,SE,135,3.1,-999.0,52,-99.99,,,0.00,Acu-Link.com,2013-01-22 04:32:00,
2013-01-21 23:47:00,28.9,13.5,29.89,SSW,202,5.1,-999.0,52,-99.99,,,0.00,Acu-Link.com,2013-01-22 04:47:00,